sensor_id;sensor_type;location;lat;lon;timestamp;P1;durP1;ratioP1;P2;durP2;ratioP2
71947;SDS011;63257;55.082;38.772;2023-09-12T00:00:17;39.03;;;17.03;;
71947;SDS011;63257;55.082;38.772;2023-09-12T00:02:43;39.90;;;16.83;;
71947;SDS011;63257;55.082;38.772;2023-09-12T00:05:08;39.97;;;16.73;;
71947;SDS011;63257;55.082;38.772;2023-09-12T00:07:35;39.83;;;17.33;;
71947;SDS011;63257;55.082;38.772;2023-09-12T00:10:02;37.30;;;15.40;;
71947;SDS011;63257;55.082;38.772;2023-09-12T00:12:30;39.17;;;16.52;;
71947;SDS011;63257;55.082;38.772;2023-09-12T00:14:56;36.30;;;15.37;;
71947;SDS011;63257;55.082;38.772;2023-09-12T00:17:22;37.67;;;15.73;;
71947;SDS011;63257;55.082;38.772;2023-09-12T00:19:47;36.10;;;14.70;;
71947;SDS011;63257;55.082;38.772;2023-09-12T00:22:13;33.55;;;15.20;;
71947;SDS011;63257;55.082;38.772;2023-09-12T00:24:39;31.63;;;14.60;;
71947;SDS011;63257;55.082;38.772;2023-09-12T00:27:05;36.03;;;14.43;;
71947;SDS011;63257;55.082;38.772;2023-09-12T00:29:31;36.70;;;13.37;;
71947;SDS011;63257;55.082;38.772;2023-09-12T00:31:57;34.33;;;14.27;;
71947;SDS011;63257;55.082;38.772;2023-09-12T00:34:23;32.22;;;13.82;;
71947;SDS011;63257;55.082;38.772;2023-09-12T00:36:49;37.90;;;14.73;;
71947;SDS011;63257;55.082;38.772;2023-09-12T00:39:15;30.70;;;13.40;;
71947;SDS011;63257;55.082;38.772;2023-09-12T00:41:43;29.50;;;11.85;;
71947;SDS011;63257;55.082;38.772;2023-09-12T00:44:09;26.33;;;12.20;;
71947;SDS011;63257;55.082;38.772;2023-09-12T00:46:35;29.95;;;13.18;;
71947;SDS011;63257;55.082;38.772;2023-09-12T00:49:02;28.27;;;12.15;;
71947;SDS011;63257;55.082;38.772;2023-09-12T00:51:30;34.67;;;12.50;;
71947;SDS011;63257;55.082;38.772;2023-09-12T00:53:58;30.42;;;12.70;;
71947;SDS011;63257;55.082;38.772;2023-09-12T00:56:23;32.30;;;12.90;;
71947;SDS011;63257;55.082;38.772;2023-09-12T00:58:49;26.80;;;12.00;;
71947;SDS011;63257;55.082;38.772;2023-09-12T01:01:18;29.85;;;11.93;;
71947;SDS011;63257;55.082;38.772;2023-09-12T01:03:46;37.65;;;12.98;;
71947;SDS011;63257;55.082;38.772;2023-09-12T01:06:12;38.83;;;14.37;;
71947;SDS011;63257;55.082;38.772;2023-09-12T01:08:40;40.95;;;14.25;;
71947;SDS011;63257;55.082;38.772;2023-09-12T01:11:06;45.05;;;14.10;;
71947;SDS011;63257;55.082;38.772;2023-09-12T01:13:31;46.90;;;15.33;;
71947;SDS011;63257;55.082;38.772;2023-09-12T01:15:57;47.53;;;15.23;;
71947;SDS011;63257;55.082;38.772;2023-09-12T01:18:23;38.42;;;14.05;;
71947;SDS011;63257;55.082;38.772;2023-09-12T01:21:36;40.27;;;14.23;;
71947;SDS011;63257;55.082;38.772;2023-09-12T01:23:50;41.80;;;14.20;;
71947;SDS011;63257;55.082;38.772;2023-09-12T01:29:43;46.00;;;12.80;;
71947;SDS011;63257;55.082;38.772;2023-09-12T01:32:11;69.85;;;13.60;;
71947;SDS011;63257;55.082;38.772;2023-09-12T01:34:40;63.20;;;17.75;;
71947;SDS011;63257;55.082;38.772;2023-09-12T01:37:05;50.13;;;15.77;;
71947;SDS011;63257;55.082;38.772;2023-09-12T01:39:31;55.08;;;16.40;;
71947;SDS011;63257;55.082;38.772;2023-09-12T01:41:57;58.67;;;16.48;;
71947;SDS011;63257;55.082;38.772;2023-09-12T01:44:25;61.55;;;16.40;;
71947;SDS011;63257;55.082;38.772;2023-09-12T01:46:54;57.10;;;15.77;;
71947;SDS011;63257;55.082;38.772;2023-09-12T01:49:23;41.83;;;13.65;;
71947;SDS011;63257;55.082;38.772;2023-09-12T01:51:52;47.37;;;14.37;;
71947;SDS011;63257;55.082;38.772;2023-09-12T01:54:19;55.38;;;15.77;;
71947;SDS011;63257;55.082;38.772;2023-09-12T01:56:47;49.38;;;14.73;;
71947;SDS011;63257;55.082;38.772;2023-09-12T01:59:13;56.67;;;14.30;;
71947;SDS011;63257;55.082;38.772;2023-09-12T02:01:39;133.25;;;18.67;;
71947;SDS011;63257;55.082;38.772;2023-09-12T02:04:05;209.17;;;23.37;;
71947;SDS011;63257;55.082;38.772;2023-09-12T02:06:35;176.27;;;19.27;;
71947;SDS011;63257;55.082;38.772;2023-09-12T02:09:01;110.35;;;19.08;;
71947;SDS011;63257;55.082;38.772;2023-09-12T02:11:27;158.57;;;21.45;;
71947;SDS011;63257;55.082;38.772;2023-09-12T02:13:55;121.33;;;19.20;;
71947;SDS011;63257;55.082;38.772;2023-09-12T02:16:21;92.55;;;19.75;;
71947;SDS011;63257;55.082;38.772;2023-09-12T02:18:47;101.13;;;20.40;;
71947;SDS011;63257;55.082;38.772;2023-09-12T02:21:14;109.60;;;20.13;;
71947;SDS011;63257;55.082;38.772;2023-09-12T02:23:43;113.07;;;19.10;;
71947;SDS011;63257;55.082;38.772;2023-09-12T02:26:09;125.55;;;19.27;;
71947;SDS011;63257;55.082;38.772;2023-09-12T02:28:35;93.83;;;19.57;;
71947;SDS011;63257;55.082;38.772;2023-09-12T02:31:00;190.98;;;24.88;;
71947;SDS011;63257;55.082;38.772;2023-09-12T02:33:26;85.00;;;17.73;;
71947;SDS011;63257;55.082;38.772;2023-09-12T02:35:53;113.28;;;19.73;;
71947;SDS011;63257;55.082;38.772;2023-09-12T02:38:19;198.55;;;25.75;;
71947;SDS011;63257;55.082;38.772;2023-09-12T02:40:45;91.87;;;20.87;;
71947;SDS011;63257;55.082;38.772;2023-09-12T02:43:11;190.55;;;26.17;;
71947;SDS011;63257;55.082;38.772;2023-09-12T02:45:37;142.77;;;23.27;;
71947;SDS011;63257;55.082;38.772;2023-09-12T02:48:03;128.65;;;19.35;;
71947;SDS011;63257;55.082;38.772;2023-09-12T02:50:29;267.75;;;31.02;;
71947;SDS011;63257;55.082;38.772;2023-09-12T02:52:55;137.23;;;22.87;;
71947;SDS011;63257;55.082;38.772;2023-09-12T02:55:21;123.97;;;21.98;;
71947;SDS011;63257;55.082;38.772;2023-09-12T02:57:47;167.48;;;23.50;;
71947;SDS011;63257;55.082;38.772;2023-09-12T03:00:13;89.90;;;19.17;;
71947;SDS011;63257;55.082;38.772;2023-09-12T03:02:39;140.32;;;22.45;;
71947;SDS011;63257;55.082;38.772;2023-09-12T03:05:05;133.23;;;22.00;;
71947;SDS011;63257;55.082;38.772;2023-09-12T03:07:31;84.77;;;18.97;;
71947;SDS011;63257;55.082;38.772;2023-09-12T03:09:58;69.30;;;17.92;;
71947;SDS011;63257;55.082;38.772;2023-09-12T03:12:24;61.08;;;17.52;;
71947;SDS011;63257;55.082;38.772;2023-09-12T03:14:50;55.70;;;17.23;;
71947;SDS011;63257;55.082;38.772;2023-09-12T03:17:16;176.27;;;22.80;;
71947;SDS011;63257;55.082;38.772;2023-09-12T03:19:42;150.05;;;21.45;;
71947;SDS011;63257;55.082;38.772;2023-09-12T03:22:08;217.10;;;24.17;;
71947;SDS011;63257;55.082;38.772;2023-09-12T03:24:35;155.30;;;23.02;;
71947;SDS011;63257;55.082;38.772;2023-09-12T03:27:01;119.45;;;20.83;;
71947;SDS011;63257;55.082;38.772;2023-09-12T03:29:27;78.03;;;19.00;;
71947;SDS011;63257;55.082;38.772;2023-09-12T03:31:53;61.45;;;18.60;;
71947;SDS011;63257;55.082;38.772;2023-09-12T03:34:19;66.85;;;21.20;;
71947;SDS011;63257;55.082;38.772;2023-09-12T03:36:45;71.37;;;19.40;;
71947;SDS011;63257;55.082;38.772;2023-09-12T03:39:11;60.38;;;20.10;;
71947;SDS011;63257;55.082;38.772;2023-09-12T03:41:39;50.05;;;17.55;;
71947;SDS011;63257;55.082;38.772;2023-09-12T03:44:05;59.22;;;18.67;;
71947;SDS011;63257;55.082;38.772;2023-09-12T03:46:32;54.00;;;17.58;;
71947;SDS011;63257;55.082;38.772;2023-09-12T03:48:58;70.32;;;18.85;;
71947;SDS011;63257;55.082;38.772;2023-09-12T03:51:25;152.15;;;21.13;;
71947;SDS011;63257;55.082;38.772;2023-09-12T03:53:51;93.47;;;18.50;;
71947;SDS011;63257;55.082;38.772;2023-09-12T03:56:17;179.07;;;24.20;;
71947;SDS011;63257;55.082;38.772;2023-09-12T03:58:46;59.03;;;16.52;;
71947;SDS011;63257;55.082;38.772;2023-09-12T04:01:12;105.60;;;17.20;;
71947;SDS011;63257;55.082;38.772;2023-09-12T04:03:38;60.15;;;15.13;;
71947;SDS011;63257;55.082;38.772;2023-09-12T04:06:04;49.30;;;14.40;;
71947;SDS011;63257;55.082;38.772;2023-09-12T04:08:30;74.85;;;15.88;;
71947;SDS011;63257;55.082;38.772;2023-09-12T04:10:57;60.45;;;17.15;;
71947;SDS011;63257;55.082;38.772;2023-09-12T04:13:23;47.35;;;15.27;;
71947;SDS011;63257;55.082;38.772;2023-09-12T04:15:49;50.60;;;16.13;;
71947;SDS011;63257;55.082;38.772;2023-09-12T04:18:15;44.65;;;16.20;;
71947;SDS011;63257;55.082;38.772;2023-09-12T04:20:41;63.97;;;18.73;;
71947;SDS011;63257;55.082;38.772;2023-09-12T04:23:07;59.78;;;18.75;;
71947;SDS011;63257;55.082;38.772;2023-09-12T04:25:33;70.40;;;20.23;;
71947;SDS011;63257;55.082;38.772;2023-09-12T04:27:59;55.30;;;18.55;;
71947;SDS011;63257;55.082;38.772;2023-09-12T04:30:25;42.95;;;17.98;;
71947;SDS011;63257;55.082;38.772;2023-09-12T04:32:51;36.70;;;14.23;;
71947;SDS011;63257;55.082;38.772;2023-09-12T04:35:17;42.60;;;16.88;;
71947;SDS011;63257;55.082;38.772;2023-09-12T04:37:46;40.67;;;16.38;;
71947;SDS011;63257;55.082;38.772;2023-09-12T04:40:14;39.70;;;16.80;;
71947;SDS011;63257;55.082;38.772;2023-09-12T04:42:40;36.53;;;15.32;;
71947;SDS011;63257;55.082;38.772;2023-09-12T04:45:06;36.17;;;15.75;;
71947;SDS011;63257;55.082;38.772;2023-09-12T04:47:33;40.75;;;16.95;;
71947;SDS011;63257;55.082;38.772;2023-09-12T04:49:59;37.43;;;17.03;;
71947;SDS011;63257;55.082;38.772;2023-09-12T04:52:27;45.58;;;18.40;;
71947;SDS011;63257;55.082;38.772;2023-09-12T04:54:53;50.95;;;19.63;;
71947;SDS011;63257;55.082;38.772;2023-09-12T04:57:19;51.30;;;21.88;;
71947;SDS011;63257;55.082;38.772;2023-09-12T04:59:45;52.10;;;21.25;;
71947;SDS011;63257;55.082;38.772;2023-09-12T05:02:11;47.93;;;21.10;;
71947;SDS011;63257;55.082;38.772;2023-09-12T05:04:37;42.40;;;19.20;;
71947;SDS011;63257;55.082;38.772;2023-09-12T05:07:03;40.08;;;16.98;;
71947;SDS011;63257;55.082;38.772;2023-09-12T05:09:29;37.53;;;17.83;;
71947;SDS011;63257;55.082;38.772;2023-09-12T05:11:54;35.50;;;15.70;;
71947;SDS011;63257;55.082;38.772;2023-09-12T05:14:20;34.27;;;14.97;;
71947;SDS011;63257;55.082;38.772;2023-09-12T05:16:46;31.45;;;13.68;;
71947;SDS011;63257;55.082;38.772;2023-09-12T05:19:12;34.60;;;14.18;;
71947;SDS011;63257;55.082;38.772;2023-09-12T05:21:38;33.97;;;15.03;;
71947;SDS011;63257;55.082;38.772;2023-09-12T05:24:05;32.30;;;14.68;;
71947;SDS011;63257;55.082;38.772;2023-09-12T05:26:31;33.75;;;14.55;;
71947;SDS011;63257;55.082;38.772;2023-09-12T05:28:56;33.42;;;15.52;;
71947;SDS011;63257;55.082;38.772;2023-09-12T05:31:22;30.02;;;13.73;;
71947;SDS011;63257;55.082;38.772;2023-09-12T05:33:48;31.52;;;13.75;;
71947;SDS011;63257;55.082;38.772;2023-09-12T05:36:15;37.30;;;15.05;;
71947;SDS011;63257;55.082;38.772;2023-09-12T05:38:40;31.50;;;13.88;;
71947;SDS011;63257;55.082;38.772;2023-09-12T05:41:06;30.52;;;13.90;;
71947;SDS011;63257;55.082;38.772;2023-09-12T05:43:32;28.00;;;13.53;;
71947;SDS011;63257;55.082;38.772;2023-09-12T05:45:58;30.92;;;13.57;;
71947;SDS011;63257;55.082;38.772;2023-09-12T05:48:24;29.48;;;13.70;;
71947;SDS011;63257;55.082;38.772;2023-09-12T05:50:50;31.42;;;13.95;;
71947;SDS011;63257;55.082;38.772;2023-09-12T05:53:16;31.90;;;14.15;;
71947;SDS011;63257;55.082;38.772;2023-09-12T05:55:42;32.13;;;13.73;;
71947;SDS011;63257;55.082;38.772;2023-09-12T05:58:08;30.55;;;13.85;;
71947;SDS011;63257;55.082;38.772;2023-09-12T06:00:35;33.90;;;13.10;;
71947;SDS011;63257;55.082;38.772;2023-09-12T06:03:01;25.43;;;12.77;;
71947;SDS011;63257;55.082;38.772;2023-09-12T06:05:27;27.52;;;13.60;;
71947;SDS011;63257;55.082;38.772;2023-09-12T06:07:53;26.75;;;13.57;;
71947;SDS011;63257;55.082;38.772;2023-09-12T06:10:18;25.33;;;13.03;;
71947;SDS011;63257;55.082;38.772;2023-09-12T06:12:44;27.67;;;13.35;;
71947;SDS011;63257;55.082;38.772;2023-09-12T06:15:11;29.65;;;13.98;;
71947;SDS011;63257;55.082;38.772;2023-09-12T06:17:37;24.07;;;12.63;;
71947;SDS011;63257;55.082;38.772;2023-09-12T06:20:03;27.02;;;13.57;;
71947;SDS011;63257;55.082;38.772;2023-09-12T06:22:33;30.35;;;14.15;;
71947;SDS011;63257;55.082;38.772;2023-09-12T06:25:00;26.83;;;13.00;;
71947;SDS011;63257;55.082;38.772;2023-09-12T06:27:26;26.60;;;13.07;;
71947;SDS011;63257;55.082;38.772;2023-09-12T06:29:52;27.65;;;13.52;;
71947;SDS011;63257;55.082;38.772;2023-09-12T06:32:18;25.10;;;12.63;;
71947;SDS011;63257;55.082;38.772;2023-09-12T06:34:44;25.40;;;12.98;;
71947;SDS011;63257;55.082;38.772;2023-09-12T06:37:10;22.15;;;12.10;;
71947;SDS011;63257;55.082;38.772;2023-09-12T06:39:40;23.30;;;11.13;;
71947;SDS011;63257;55.082;38.772;2023-09-12T06:42:06;23.45;;;11.43;;
71947;SDS011;63257;55.082;38.772;2023-09-12T06:44:31;25.15;;;11.82;;
71947;SDS011;63257;55.082;38.772;2023-09-12T06:46:57;22.83;;;12.00;;
71947;SDS011;63257;55.082;38.772;2023-09-12T06:49:23;22.75;;;12.05;;
71947;SDS011;63257;55.082;38.772;2023-09-12T06:51:49;20.27;;;10.57;;
71947;SDS011;63257;55.082;38.772;2023-09-12T06:54:15;23.10;;;11.20;;
71947;SDS011;63257;55.082;38.772;2023-09-12T06:56:40;26.35;;;12.00;;
71947;SDS011;63257;55.082;38.772;2023-09-12T06:59:08;20.47;;;10.07;;
71947;SDS011;63257;55.082;38.772;2023-09-12T07:01:35;31.70;;;12.13;;
71947;SDS011;63257;55.082;38.772;2023-09-12T07:04:02;24.17;;;11.75;;
71947;SDS011;63257;55.082;38.772;2023-09-12T07:06:29;26.88;;;12.10;;
71947;SDS011;63257;55.082;38.772;2023-09-12T07:08:54;23.50;;;11.27;;
71947;SDS011;63257;55.082;38.772;2023-09-12T07:11:20;17.08;;;10.07;;
71947;SDS011;63257;55.082;38.772;2023-09-12T07:13:47;21.02;;;9.30;;
71947;SDS011;63257;55.082;38.772;2023-09-12T07:16:13;20.05;;;10.13;;
71947;SDS011;63257;55.082;38.772;2023-09-12T07:18:39;21.80;;;10.53;;
71947;SDS011;63257;55.082;38.772;2023-09-12T07:21:05;16.23;;;8.35;;
71947;SDS011;63257;55.082;38.772;2023-09-12T07:23:32;15.52;;;7.90;;
71947;SDS011;63257;55.082;38.772;2023-09-12T07:25:59;17.50;;;8.27;;
71947;SDS011;63257;55.082;38.772;2023-09-12T07:28:26;18.50;;;8.98;;
71947;SDS011;63257;55.082;38.772;2023-09-12T07:30:56;15.37;;;8.17;;
71947;SDS011;63257;55.082;38.772;2023-09-12T07:33:22;16.52;;;7.82;;
71947;SDS011;63257;55.082;38.772;2023-09-12T07:35:48;14.98;;;8.27;;
71947;SDS011;63257;55.082;38.772;2023-09-12T07:38:14;14.63;;;8.23;;
71947;SDS011;63257;55.082;38.772;2023-09-12T07:40:41;15.67;;;8.50;;
71947;SDS011;63257;55.082;38.772;2023-09-12T07:43:08;16.17;;;7.90;;
71947;SDS011;63257;55.082;38.772;2023-09-12T07:45:35;16.10;;;7.88;;
71947;SDS011;63257;55.082;38.772;2023-09-12T07:48:05;15.02;;;7.47;;
71947;SDS011;63257;55.082;38.772;2023-09-12T07:50:32;17.58;;;8.60;;
71947;SDS011;63257;55.082;38.772;2023-09-12T07:52:58;16.87;;;8.73;;
71947;SDS011;63257;55.082;38.772;2023-09-12T07:55:24;18.15;;;8.27;;
71947;SDS011;63257;55.082;38.772;2023-09-12T07:57:50;16.07;;;8.80;;
71947;SDS011;63257;55.082;38.772;2023-09-12T08:00:16;15.43;;;8.65;;
71947;SDS011;63257;55.082;38.772;2023-09-12T08:02:42;19.98;;;9.10;;
71947;SDS011;63257;55.082;38.772;2023-09-12T08:05:08;17.55;;;9.27;;
71947;SDS011;63257;55.082;38.772;2023-09-12T08:07:35;17.77;;;8.03;;
71947;SDS011;63257;55.082;38.772;2023-09-12T08:10:01;20.02;;;10.00;;
71947;SDS011;63257;55.082;38.772;2023-09-12T08:12:29;20.45;;;10.00;;
71947;SDS011;63257;55.082;38.772;2023-09-12T08:14:55;18.48;;;9.38;;
71947;SDS011;63257;55.082;38.772;2023-09-12T08:17:21;15.80;;;8.37;;
71947;SDS011;63257;55.082;38.772;2023-09-12T08:19:48;19.77;;;10.90;;
71947;SDS011;63257;55.082;38.772;2023-09-12T08:22:14;18.45;;;9.65;;
71947;SDS011;63257;55.082;38.772;2023-09-12T08:24:40;21.00;;;9.70;;
71947;SDS011;63257;55.082;38.772;2023-09-12T08:27:06;17.17;;;9.30;;
71947;SDS011;63257;55.082;38.772;2023-09-12T08:29:33;19.65;;;10.20;;
71947;SDS011;63257;55.082;38.772;2023-09-12T08:31:59;20.95;;;11.15;;
71947;SDS011;63257;55.082;38.772;2023-09-12T08:34:25;22.95;;;10.80;;
71947;SDS011;63257;55.082;38.772;2023-09-12T08:36:51;17.83;;;9.85;;
71947;SDS011;63257;55.082;38.772;2023-09-12T08:39:18;20.83;;;9.70;;
71947;SDS011;63257;55.082;38.772;2023-09-12T08:41:52;17.60;;;9.13;;
71947;SDS011;63257;55.082;38.772;2023-09-12T08:44:19;16.60;;;9.50;;
71947;SDS011;63257;55.082;38.772;2023-09-12T08:46:46;17.35;;;9.27;;
71947;SDS011;63257;55.082;38.772;2023-09-12T08:49:12;22.50;;;9.98;;
71947;SDS011;63257;55.082;38.772;2023-09-12T08:51:38;16.50;;;8.53;;
71947;SDS011;63257;55.082;38.772;2023-09-12T08:54:05;12.95;;;7.30;;
71947;SDS011;63257;55.082;38.772;2023-09-12T08:56:32;16.73;;;8.00;;
71947;SDS011;63257;55.082;38.772;2023-09-12T08:59:00;15.18;;;8.45;;
71947;SDS011;63257;55.082;38.772;2023-09-12T09:01:28;15.20;;;8.73;;
71947;SDS011;63257;55.082;38.772;2023-09-12T09:03:56;15.80;;;9.35;;
71947;SDS011;63257;55.082;38.772;2023-09-12T09:06:22;15.77;;;9.45;;
71947;SDS011;63257;55.082;38.772;2023-09-12T09:08:49;26.33;;;10.07;;
71947;SDS011;63257;55.082;38.772;2023-09-12T09:11:16;14.55;;;7.93;;
71947;SDS011;63257;55.082;38.772;2023-09-12T09:13:42;10.67;;;6.70;;
71947;SDS011;63257;55.082;38.772;2023-09-12T09:16:15;14.27;;;7.05;;
71947;SDS011;63257;55.082;38.772;2023-09-12T09:21:27;13.63;;;7.25;;
71947;SDS011;63257;55.082;38.772;2023-09-12T09:24:01;17.38;;;8.48;;
71947;SDS011;63257;55.082;38.772;2023-09-12T09:26:48;11.43;;;6.67;;
71947;SDS011;63257;55.082;38.772;2023-09-12T09:29:24;15.20;;;7.00;;
71947;SDS011;63257;55.082;38.772;2023-09-12T09:31:50;11.77;;;6.80;;
71947;SDS011;63257;55.082;38.772;2023-09-12T09:34:18;15.13;;;7.45;;
71947;SDS011;63257;55.082;38.772;2023-09-12T09:36:48;12.07;;;6.53;;
71947;SDS011;63257;55.082;38.772;2023-09-12T09:39:18;12.40;;;6.35;;
71947;SDS011;63257;55.082;38.772;2023-09-12T09:41:47;11.43;;;6.60;;
71947;SDS011;63257;55.082;38.772;2023-09-12T09:44:14;15.77;;;6.93;;
71947;SDS011;63257;55.082;38.772;2023-09-12T09:46:42;13.57;;;6.95;;
71947;SDS011;63257;55.082;38.772;2023-09-12T09:49:15;12.00;;;6.50;;
71947;SDS011;63257;55.082;38.772;2023-09-12T09:51:45;12.18;;;6.53;;
71947;SDS011;63257;55.082;38.772;2023-09-12T09:54:11;10.70;;;6.40;;
71947;SDS011;63257;55.082;38.772;2023-09-12T09:56:47;10.27;;;6.05;;
71947;SDS011;63257;55.082;38.772;2023-09-12T09:59:17;10.27;;;5.80;;
71947;SDS011;63257;55.082;38.772;2023-09-12T10:01:44;9.90;;;6.00;;
71947;SDS011;63257;55.082;38.772;2023-09-12T10:04:11;12.32;;;6.47;;
71947;SDS011;63257;55.082;38.772;2023-09-12T10:06:38;10.65;;;6.40;;
71947;SDS011;63257;55.082;38.772;2023-09-12T10:09:05;11.23;;;6.40;;
71947;SDS011;63257;55.082;38.772;2023-09-12T10:11:34;12.85;;;6.03;;
71947;SDS011;63257;55.082;38.772;2023-09-12T10:14:04;9.67;;;6.03;;
71947;SDS011;63257;55.082;38.772;2023-09-12T10:16:31;9.73;;;6.22;;
71947;SDS011;63257;55.082;38.772;2023-09-12T10:21:32;12.73;;;6.35;;
71947;SDS011;63257;55.082;38.772;2023-09-12T10:23:59;8.93;;;5.50;;
71947;SDS011;63257;55.082;38.772;2023-09-12T10:26:29;9.53;;;5.50;;
71947;SDS011;63257;55.082;38.772;2023-09-12T10:28:57;10.18;;;5.78;;
71947;SDS011;63257;55.082;38.772;2023-09-12T10:31:23;9.50;;;5.75;;
71947;SDS011;63257;55.082;38.772;2023-09-12T10:33:50;10.25;;;5.32;;
71947;SDS011;63257;55.082;38.772;2023-09-12T10:36:17;9.27;;;4.93;;
71947;SDS011;63257;55.082;38.772;2023-09-12T10:38:45;7.87;;;5.03;;
71947;SDS011;63257;55.082;38.772;2023-09-12T10:41:16;11.90;;;5.38;;
71947;SDS011;63257;55.082;38.772;2023-09-12T10:43:42;8.10;;;4.88;;
71947;SDS011;63257;55.082;38.772;2023-09-12T10:46:15;12.38;;;5.18;;
71947;SDS011;63257;55.082;38.772;2023-09-12T10:48:41;11.30;;;4.93;;
71947;SDS011;63257;55.082;38.772;2023-09-12T10:51:07;9.20;;;4.95;;
71947;SDS011;63257;55.082;38.772;2023-09-12T10:53:34;9.10;;;4.22;;
71947;SDS011;63257;55.082;38.772;2023-09-12T10:56:13;6.65;;;4.25;;
71947;SDS011;63257;55.082;38.772;2023-09-12T11:01:38;9.07;;;4.25;;
71947;SDS011;63257;55.082;38.772;2023-09-12T11:06:48;7.20;;;4.38;;
71947;SDS011;63257;55.082;38.772;2023-09-12T11:11:40;7.43;;;4.50;;
71947;SDS011;63257;55.082;38.772;2023-09-12T11:14:09;6.60;;;4.30;;
71947;SDS011;63257;55.082;38.772;2023-09-12T11:16:35;12.32;;;5.03;;
71947;SDS011;63257;55.082;38.772;2023-09-12T11:19:20;9.23;;;4.90;;
71947;SDS011;63257;55.082;38.772;2023-09-12T11:21:52;8.68;;;4.53;;
71947;SDS011;63257;55.082;38.772;2023-09-12T11:24:20;8.00;;;4.20;;
71947;SDS011;63257;55.082;38.772;2023-09-12T11:26:56;6.20;;;4.10;;
71947;SDS011;63257;55.082;38.772;2023-09-12T11:29:33;6.88;;;4.35;;
71947;SDS011;63257;55.082;38.772;2023-09-12T11:32:01;6.50;;;3.90;;
71947;SDS011;63257;55.082;38.772;2023-09-12T11:34:29;7.05;;;4.57;;
71947;SDS011;63257;55.082;38.772;2023-09-12T11:37:05;11.25;;;4.65;;
71947;SDS011;63257;55.082;38.772;2023-09-12T11:39:32;8.07;;;5.20;;
71947;SDS011;63257;55.082;38.772;2023-09-12T11:42:00;7.00;;;5.25;;
71947;SDS011;63257;55.082;38.772;2023-09-12T11:44:27;7.77;;;5.17;;
71947;SDS011;63257;55.082;38.772;2023-09-12T11:46:56;12.20;;;7.38;;
71947;SDS011;63257;55.082;38.772;2023-09-12T11:49:35;7.22;;;4.60;;
71947;SDS011;63257;55.082;38.772;2023-09-12T11:52:02;8.32;;;5.15;;
71947;SDS011;63257;55.082;38.772;2023-09-12T11:54:29;7.47;;;4.72;;
71947;SDS011;63257;55.082;38.772;2023-09-12T11:56:57;8.60;;;4.87;;
71947;SDS011;63257;55.082;38.772;2023-09-12T11:59:25;7.80;;;4.70;;
71947;SDS011;63257;55.082;38.772;2023-09-12T12:01:52;7.70;;;4.97;;
71947;SDS011;63257;55.082;38.772;2023-09-12T12:04:22;6.75;;;5.07;;
71947;SDS011;63257;55.082;38.772;2023-09-12T12:06:51;9.15;;;5.43;;
71947;SDS011;63257;55.082;38.772;2023-09-12T12:09:18;7.73;;;4.97;;
71947;SDS011;63257;55.082;38.772;2023-09-12T12:11:45;8.18;;;5.00;;
71947;SDS011;63257;55.082;38.772;2023-09-12T12:14:12;6.90;;;5.00;;
71947;SDS011;63257;55.082;38.772;2023-09-12T12:16:44;7.00;;;5.40;;
71947;SDS011;63257;55.082;38.772;2023-09-12T12:19:11;9.18;;;7.43;;
71947;SDS011;63257;55.082;38.772;2023-09-12T12:21:41;9.13;;;5.50;;
71947;SDS011;63257;55.082;38.772;2023-09-12T12:24:09;12.07;;;5.60;;
71947;SDS011;63257;55.082;38.772;2023-09-12T12:26:37;9.85;;;5.30;;
71947;SDS011;63257;55.082;38.772;2023-09-12T12:29:05;8.35;;;5.53;;
71947;SDS011;63257;55.082;38.772;2023-09-12T12:31:31;8.05;;;5.30;;
71947;SDS011;63257;55.082;38.772;2023-09-12T12:33:57;8.55;;;5.22;;
71947;SDS011;63257;55.082;38.772;2023-09-12T12:36:25;9.13;;;5.40;;
71947;SDS011;63257;55.082;38.772;2023-09-12T12:38:52;9.05;;;5.60;;
71947;SDS011;63257;55.082;38.772;2023-09-12T12:41:25;8.63;;;5.00;;
71947;SDS011;63257;55.082;38.772;2023-09-12T12:43:53;8.67;;;5.13;;
71947;SDS011;63257;55.082;38.772;2023-09-12T12:46:24;6.43;;;4.93;;
71947;SDS011;63257;55.082;38.772;2023-09-12T12:48:50;6.72;;;4.93;;
71947;SDS011;63257;55.082;38.772;2023-09-12T12:51:20;7.90;;;5.55;;
71947;SDS011;63257;55.082;38.772;2023-09-12T12:53:52;6.43;;;5.15;;
71947;SDS011;63257;55.082;38.772;2023-09-12T12:56:23;7.88;;;5.00;;
71947;SDS011;63257;55.082;38.772;2023-09-12T12:58:54;8.75;;;6.40;;
71947;SDS011;63257;55.082;38.772;2023-09-12T13:01:22;8.93;;;5.90;;
71947;SDS011;63257;55.082;38.772;2023-09-12T13:03:48;8.50;;;6.00;;
71947;SDS011;63257;55.082;38.772;2023-09-12T13:06:15;9.35;;;5.43;;
71947;SDS011;63257;55.082;38.772;2023-09-12T13:08:43;22.85;;;20.40;;
71947;SDS011;63257;55.082;38.772;2023-09-12T13:11:10;43.42;;;33.45;;
71947;SDS011;63257;55.082;38.772;2023-09-12T13:13:38;10.50;;;8.43;;
71947;SDS011;63257;55.082;38.772;2023-09-12T13:16:05;12.63;;;9.88;;
71947;SDS011;63257;55.082;38.772;2023-09-12T13:18:38;8.55;;;6.63;;
71947;SDS011;63257;55.082;38.772;2023-09-12T13:21:04;9.13;;;5.90;;
71947;SDS011;63257;55.082;38.772;2023-09-12T13:23:30;7.97;;;5.80;;
71947;SDS011;63257;55.082;38.772;2023-09-12T13:25:58;17.37;;;14.07;;
71947;SDS011;63257;55.082;38.772;2023-09-12T13:28:24;9.75;;;7.90;;
71947;SDS011;63257;55.082;38.772;2023-09-12T13:30:54;7.32;;;6.40;;
71947;SDS011;63257;55.082;38.772;2023-09-12T13:33:20;9.80;;;6.13;;
71947;SDS011;63257;55.082;38.772;2023-09-12T13:35:47;9.43;;;6.33;;
71947;SDS011;63257;55.082;38.772;2023-09-12T13:38:15;7.25;;;5.82;;
71947;SDS011;63257;55.082;38.772;2023-09-12T13:40:42;8.65;;;6.38;;
71947;SDS011;63257;55.082;38.772;2023-09-12T13:43:09;9.95;;;6.50;;
71947;SDS011;63257;55.082;38.772;2023-09-12T13:45:36;8.48;;;6.10;;
71947;SDS011;63257;55.082;38.772;2023-09-12T13:48:02;8.25;;;6.20;;
71947;SDS011;63257;55.082;38.772;2023-09-12T13:50:29;8.95;;;6.50;;
71947;SDS011;63257;55.082;38.772;2023-09-12T13:52:57;8.13;;;6.32;;
71947;SDS011;63257;55.082;38.772;2023-09-12T13:55:32;8.70;;;6.03;;
71947;SDS011;63257;55.082;38.772;2023-09-12T13:58:03;8.88;;;6.70;;
71947;SDS011;63257;55.082;38.772;2023-09-12T14:00:30;8.80;;;6.00;;
71947;SDS011;63257;55.082;38.772;2023-09-12T14:02:56;8.95;;;6.30;;
71947;SDS011;63257;55.082;38.772;2023-09-12T14:05:23;8.05;;;6.20;;
71947;SDS011;63257;55.082;38.772;2023-09-12T14:07:50;8.43;;;6.00;;
71947;SDS011;63257;55.082;38.772;2023-09-12T14:10:17;8.63;;;6.40;;
71947;SDS011;63257;55.082;38.772;2023-09-12T14:12:45;8.77;;;6.00;;
71947;SDS011;63257;55.082;38.772;2023-09-12T14:15:11;9.50;;;6.22;;
71947;SDS011;63257;55.082;38.772;2023-09-12T14:17:41;12.20;;;7.30;;
71947;SDS011;63257;55.082;38.772;2023-09-12T14:20:08;9.48;;;6.60;;
71947;SDS011;63257;55.082;38.772;2023-09-12T14:22:35;11.02;;;6.55;;
71947;SDS011;63257;55.082;38.772;2023-09-12T14:25:01;8.50;;;5.73;;
71947;SDS011;63257;55.082;38.772;2023-09-12T14:27:31;10.80;;;7.45;;
71947;SDS011;63257;55.082;38.772;2023-09-12T14:29:57;12.20;;;7.45;;
71947;SDS011;63257;55.082;38.772;2023-09-12T14:32:25;9.80;;;6.13;;